createdAt,value
2023-01-11T00:00:45.151Z,16.40
2023-01-11T00:05:46.555Z,16.20
2023-01-11T00:08:15.237Z,16.70
2023-01-11T00:10:43.657Z,14.70
2023-01-11T00:13:12.101Z,16.80
2023-01-11T00:15:40.494Z,11.80
2023-01-11T00:18:09.123Z,15.30
2023-01-11T00:20:40.188Z,18.30
2023-01-11T00:23:08.701Z,18.70
2023-01-11T00:25:38.603Z,14.50
2023-01-11T00:28:07.240Z,16.90
2023-01-11T00:30:35.581Z,19.20
2023-01-11T00:33:04.148Z,15.50
2023-01-11T00:35:32.755Z,19.70
2023-01-11T00:38:01.209Z,17.70
2023-01-11T00:40:29.971Z,18.60
2023-01-11T00:43:16.904Z,20.00
2023-01-11T00:46:15.127Z,18.00
2023-01-11T00:48:43.653Z,17.20
2023-01-11T00:51:12.507Z,15.00
2023-01-11T00:53:40.863Z,18.30
2023-01-11T00:56:09.335Z,17.90
2023-01-11T00:58:37.699Z,20.20
2023-01-11T01:01:08.128Z,18.90
2023-01-11T01:03:36.597Z,20.20
2023-01-11T01:06:05.570Z,18.30
2023-01-11T01:08:33.920Z,18.20
2023-01-11T01:11:02.315Z,19.80
2023-01-11T01:13:48.957Z,20.30
2023-01-11T01:16:18.344Z,18.30
2023-01-11T01:18:47.040Z,11.50
2023-01-11T01:21:17.760Z,15.50
2023-01-11T01:23:46.162Z,18.40
2023-01-11T01:26:14.522Z,17.80
2023-01-11T01:28:42.987Z,22.00
2023-01-11T01:31:11.664Z,15.30
2023-01-11T01:33:40.623Z,22.30
2023-01-11T01:36:10.111Z,19.80
2023-01-11T01:38:38.675Z,24.70
2023-01-11T01:41:07.508Z,18.50
2023-01-11T01:43:50.735Z,19.30
2023-01-11T01:46:21.374Z,23.20
2023-01-11T01:48:52.881Z,19.60
2023-01-11T01:51:24.067Z,22.40
2023-01-11T01:53:54.664Z,20.60
2023-01-11T01:56:27.273Z,21.00
2023-01-11T01:58:57.697Z,22.60
2023-01-11T02:01:44.567Z,23.20
2023-01-11T02:04:14.492Z,24.40
2023-01-11T02:06:44.632Z,25.90
2023-01-11T02:09:19.656Z,24.80
2023-01-11T02:11:48.067Z,25.10
2023-01-11T02:14:19.013Z,24.80
2023-01-11T02:16:47.542Z,23.80
2023-01-11T02:19:32.628Z,23.80
2023-01-11T02:22:17.126Z,25.30
2023-01-11T02:25:06.223Z,25.00
2023-01-11T02:27:51.097Z,24.50
2023-01-11T02:30:23.407Z,24.80
2023-01-11T02:32:58.221Z,23.10
2023-01-11T02:35:34.317Z,24.40
2023-01-11T02:38:10.632Z,22.90
2023-01-11T02:40:47.856Z,22.60
2023-01-11T02:43:51.152Z,24.60
2023-01-11T02:46:25.544Z,22.10
2023-01-11T02:48:58.837Z,23.70
2023-01-11T02:51:34.059Z,25.20
2023-01-11T02:54:06.220Z,24.80
2023-01-11T02:56:39.055Z,25.40
2023-01-11T02:59:09.918Z,25.30
2023-01-11T03:01:45.864Z,24.80
2023-01-11T03:04:26.148Z,21.90
2023-01-11T03:07:17.245Z,22.20
2023-01-11T03:09:56.327Z,22.10
2023-01-11T03:12:54.432Z,20.90
2023-01-11T03:15:46.970Z,20.90
2023-01-11T03:18:28.058Z,19.90
2023-01-11T03:21:05.847Z,20.70
2023-01-11T03:23:39.381Z,20.10
2023-01-11T03:26:14.510Z,18.60
2023-01-11T03:28:49.875Z,25.90
2023-01-11T03:31:21.483Z,22.00
2023-01-11T03:33:54.249Z,21.80
2023-01-11T03:36:26.691Z,24.50
2023-01-11T03:38:57.176Z,21.70
2023-01-11T03:41:29.100Z,21.60
2023-01-11T03:43:59.975Z,20.80
2023-01-11T03:46:30.984Z,22.40
2023-01-11T03:49:03.138Z,21.30
2023-01-11T03:51:43.678Z,20.90
2023-01-11T03:54:15.274Z,20.30
2023-01-11T03:56:49.454Z,20.20
2023-01-11T03:59:18.117Z,22.40
2023-01-11T04:01:46.530Z,22.90
2023-01-11T04:04:14.995Z,21.90
2023-01-11T04:06:43.754Z,25.10
2023-01-11T04:09:12.117Z,24.20
2023-01-11T04:11:40.553Z,22.80
2023-01-11T04:14:09.295Z,21.00
2023-01-11T04:16:37.683Z,21.80
2023-01-11T04:19:06.081Z,23.30
2023-01-11T04:21:34.553Z,23.00
2023-01-11T04:24:02.999Z,20.80
2023-01-11T04:26:31.326Z,20.50
2023-01-11T04:28:59.913Z,21.50
2023-01-11T04:31:28.349Z,22.50
2023-01-11T04:33:56.795Z,22.90
2023-01-11T04:36:25.839Z,22.70
2023-01-11T04:38:54.204Z,22.50
2023-01-11T04:41:40.684Z,24.10
2023-01-11T04:44:09.470Z,20.40
2023-01-11T04:46:37.806Z,21.40
2023-01-11T04:49:06.271Z,24.30
2023-01-11T04:51:34.711Z,14.90
2023-01-11T04:54:03.134Z,19.00
2023-01-11T04:56:31.507Z,20.10
2023-01-11T04:58:59.952Z,21.00
2023-01-11T05:01:28.562Z,20.80
2023-01-11T05:03:57.086Z,19.80
2023-01-11T05:06:25.830Z,18.80
2023-01-11T05:08:54.274Z,18.30
2023-01-11T05:11:22.633Z,17.90
2023-01-11T05:13:51.654Z,19.00
2023-01-11T05:16:23.283Z,18.50
2023-01-11T05:18:53.204Z,19.00
2023-01-11T05:21:23.139Z,19.50
2023-01-11T05:23:52.037Z,17.40
2023-01-11T05:26:23.236Z,17.70
2023-01-11T05:28:52.478Z,18.10
2023-01-11T05:31:20.954Z,15.10
2023-01-11T05:33:49.438Z,13.80
2023-01-11T05:36:20.075Z,14.40
2023-01-11T05:38:50.281Z,12.60
2023-01-11T05:41:20.568Z,14.00
2023-01-11T05:44:08.364Z,12.80
2023-01-11T05:46:38.365Z,13.80
2023-01-11T05:49:07.874Z,14.30
2023-01-11T05:51:37.619Z,12.30
2023-01-11T05:54:08.956Z,11.40
2023-01-11T05:56:37.303Z,10.90
2023-01-11T05:59:06.527Z,12.00
2023-01-11T06:01:35.294Z,12.30
2023-01-11T06:04:03.823Z,12.60
2023-01-11T06:06:33.012Z,11.90
2023-01-11T06:09:01.509Z,13.00
2023-01-11T06:11:30.168Z,13.40
2023-01-11T06:13:58.529Z,11.10
2023-01-11T06:16:27.062Z,11.00
2023-01-11T06:18:55.467Z,10.70
2023-01-11T06:21:24.503Z,11.40
2023-01-11T06:23:53.419Z,10.00
2023-01-11T06:26:22.973Z,12.20
2023-01-11T06:28:51.895Z,10.50
2023-01-11T06:31:20.645Z,10.80
2023-01-11T06:33:49.076Z,10.60
2023-01-11T06:36:17.836Z,10.80
2023-01-11T06:38:46.386Z,10.10
2023-01-11T06:41:15.350Z,9.70
2023-01-11T06:43:43.711Z,10.40
2023-01-11T06:46:13.793Z,9.20
2023-01-11T06:48:43.155Z,9.90
2023-01-11T06:51:11.982Z,10.50
2023-01-11T06:53:41.329Z,11.00
2023-01-11T06:56:12.413Z,8.90
2023-01-11T06:58:40.754Z,10.70
2023-01-11T07:01:09.350Z,9.80
2023-01-11T07:03:39.547Z,9.80
2023-01-11T07:06:08.124Z,12.40
2023-01-11T07:08:37.634Z,12.20
2023-01-11T07:11:06.689Z,11.50
2023-01-11T07:13:35.140Z,9.70
2023-01-11T07:16:03.955Z,10.30
2023-01-11T07:18:32.962Z,11.60
2023-01-11T07:21:02.178Z,11.10
2023-01-11T07:23:30.745Z,9.60
2023-01-11T07:25:59.187Z,11.60
2023-01-11T07:28:30.042Z,10.40
2023-01-11T07:30:59.736Z,9.30
2023-01-11T07:33:28.894Z,10.30
2023-01-11T07:36:00.156Z,9.30
2023-01-11T07:38:28.813Z,10.40
2023-01-11T07:40:57.157Z,10.10
2023-01-11T07:43:26.285Z,10.00
2023-01-11T07:45:55.087Z,10.10
2023-01-11T07:48:25.817Z,9.20
2023-01-11T07:50:54.628Z,10.80
2023-01-11T07:53:25.902Z,9.30
2023-01-11T07:55:56.104Z,10.70
2023-01-11T07:58:24.742Z,10.70
2023-01-11T08:00:53.306Z,10.80
2023-01-11T08:03:22.152Z,11.20
2023-01-11T08:05:51.811Z,10.10
2023-01-11T08:08:20.323Z,11.00
2023-01-11T08:11:09.772Z,11.30
2023-01-11T08:13:56.352Z,10.10
2023-01-11T08:16:26.945Z,9.60
2023-01-11T08:18:55.579Z,9.50
2023-01-11T08:21:24.128Z,11.00
2023-01-11T08:23:54.272Z,9.50
2023-01-11T08:26:24.085Z,9.80
2023-01-11T08:28:53.067Z,9.10
2023-01-11T08:31:22.071Z,9.10
2023-01-11T08:33:50.466Z,9.80
2023-01-11T08:36:23.947Z,8.50
2023-01-11T08:38:55.579Z,8.90
2023-01-11T08:41:24.289Z,9.80
2023-01-11T08:43:52.840Z,9.50
2023-01-11T08:46:21.667Z,9.80
2023-01-11T08:48:50.120Z,8.90
2023-01-11T08:51:19.326Z,8.50
2023-01-11T08:53:47.822Z,7.60
2023-01-11T08:56:16.135Z,9.80
2023-01-11T08:58:47.447Z,9.60
2023-01-11T09:01:15.851Z,8.10
2023-01-11T09:03:44.299Z,8.20
2023-01-11T09:06:13.087Z,9.80
2023-01-11T09:08:42.141Z,8.00
2023-01-11T09:11:32.390Z,9.10
2023-01-11T09:14:00.889Z,9.30
2023-01-11T09:16:29.313Z,10.00
2023-01-11T09:18:57.650Z,9.40
2023-01-11T09:21:26.659Z,10.30
2023-01-11T09:23:55.022Z,9.70
2023-01-11T09:26:23.420Z,10.30
2023-01-11T09:28:51.815Z,9.20
2023-01-11T09:31:20.263Z,9.90
2023-01-11T09:33:48.612Z,9.70
2023-01-11T09:36:21.133Z,11.00
2023-01-11T09:38:52.167Z,10.10
2023-01-11T09:41:34.804Z,9.30
2023-01-11T09:44:11.388Z,9.10
2023-01-11T09:46:42.321Z,10.00
2023-01-11T09:49:15.659Z,9.70
2023-01-11T09:51:44.155Z,9.90
2023-01-11T09:54:20.082Z,9.20
2023-01-11T09:56:57.157Z,10.80
2023-01-11T09:59:32.870Z,9.40
2023-01-11T10:02:11.014Z,9.80
2023-01-11T10:05:00.751Z,9.50
2023-01-11T10:07:49.075Z,12.10
2023-01-11T10:18:26.736Z,10.00
2023-01-11T10:19:34.820Z,11.00
2023-01-11T10:22:11.535Z,10.30
2023-01-11T10:24:42.454Z,11.30
2023-01-11T10:27:17.280Z,13.10
2023-01-11T10:29:57.413Z,13.80
2023-01-11T10:32:55.562Z,14.90
2023-01-11T10:35:44.948Z,11.80
2023-01-11T10:38:42.907Z,10.20
2023-01-11T10:41:21.503Z,9.20
2023-01-11T10:43:59.718Z,9.80
2023-01-11T10:46:28.904Z,10.80
2023-01-11T10:49:04.497Z,9.10
2023-01-11T10:51:37.176Z,9.90
2023-01-11T10:54:13.615Z,10.90
2023-01-11T10:57:02.906Z,9.00
2023-01-11T10:59:53.462Z,9.80
2023-01-11T11:02:32.779Z,10.00
2023-01-11T11:05:14.062Z,11.20
2023-01-11T11:07:47.947Z,11.60
2023-01-11T11:10:21.550Z,11.10
2023-01-11T11:12:56.831Z,9.70
2023-01-11T11:15:29.324Z,12.50
2023-01-11T11:17:57.885Z,11.40
2023-01-11T11:20:30.891Z,10.70
2023-01-11T11:22:59.748Z,13.70
2023-01-11T11:25:31.379Z,12.60
2023-01-11T11:28:02.711Z,12.30
2023-01-11T11:30:33.447Z,11.50
2023-01-11T11:33:03.953Z,13.40
2023-01-11T11:35:38.010Z,13.10
2023-01-11T11:40:35.927Z,10.10
2023-01-11T11:43:14.311Z,11.00
2023-01-11T11:45:52.611Z,10.70
2023-01-11T11:48:21.417Z,11.30
2023-01-11T11:50:51.205Z,12.60
2023-01-11T11:53:26.873Z,11.60
2023-01-11T11:55:55.564Z,12.30
2023-01-11T11:58:25.842Z,13.20
2023-01-11T12:00:55.435Z,13.40
2023-01-11T12:03:28.164Z,12.30
2023-01-11T12:06:00.244Z,11.10
2023-01-11T12:08:30.628Z,12.10
2023-01-11T12:11:01.684Z,13.60
2023-01-11T12:13:33.321Z,13.40
2023-01-11T12:16:02.964Z,11.80
2023-01-11T12:18:40.649Z,11.50
2023-01-11T12:21:16.125Z,15.80
2023-01-11T12:23:45.048Z,10.80
2023-01-11T12:26:19.740Z,12.30
2023-01-11T12:29:26.745Z,12.90
2023-01-11T12:32:10.299Z,12.50
2023-01-11T12:34:49.637Z,14.70
2023-01-11T12:37:29.491Z,13.30
2023-01-11T12:40:07.426Z,13.90
2023-01-11T12:43:02.378Z,13.60
2023-01-11T12:45:36.546Z,11.60
2023-01-11T12:48:25.955Z,13.90
2023-01-11T12:51:03.568Z,12.00
2023-01-11T12:53:41.218Z,10.40
2023-01-11T12:56:40.094Z,12.30
2023-01-11T12:59:18.282Z,10.80
2023-01-11T13:01:55.426Z,11.50
2023-01-11T13:04:45.213Z,11.80
2023-01-11T13:07:25.922Z,11.00
2023-01-11T13:10:05.342Z,12.30
2023-01-11T13:12:41.017Z,13.70
2023-01-11T13:15:25.399Z,12.30
2023-01-11T13:17:58.348Z,12.50
2023-01-11T13:20:40.488Z,12.00
2023-01-11T13:23:24.075Z,12.00
2023-01-11T13:25:55.691Z,12.70
2023-01-11T13:28:29.225Z,11.00
2023-01-11T13:30:59.808Z,12.20
2023-01-11T13:33:31.142Z,11.90
2023-01-11T13:36:05.548Z,12.10
2023-01-11T13:38:40.897Z,11.60
2023-01-11T13:41:15.306Z,12.60
2023-01-11T13:43:47.857Z,9.50
2023-01-11T13:46:23.513Z,10.10
2023-01-11T13:48:55.270Z,9.30
2023-01-11T13:51:29.237Z,9.90
2023-01-11T13:54:01.260Z,10.20
2023-01-11T13:56:32.335Z,10.00
2023-01-11T13:59:03.250Z,9.20
2023-01-11T14:01:41.116Z,9.20
2023-01-11T14:04:15.744Z,8.20
2023-01-11T14:06:55.003Z,11.10
2023-01-11T14:09:39.582Z,9.00
2023-01-11T14:12:14.214Z,9.60
2023-01-11T14:14:55.299Z,10.80
2023-01-11T14:17:38.286Z,10.60
2023-01-11T14:20:16.359Z,9.80
2023-01-11T14:22:52.482Z,10.90
2023-01-11T14:25:24.235Z,9.70
2023-01-11T14:28:20.889Z,10.30
2023-01-11T14:31:05.632Z,9.40
2023-01-11T14:33:53.204Z,12.30
2023-01-11T14:36:39.628Z,11.00
2023-01-11T14:39:23.583Z,10.00
2023-01-11T14:42:31.081Z,10.00
2023-01-11T14:45:12.972Z,11.70
2023-01-11T14:48:13.238Z,10.90
2023-01-11T14:50:57.627Z,10.20
2023-01-11T14:53:28.218Z,11.50
2023-01-11T14:55:59.033Z,12.00
2023-01-11T14:58:29.353Z,12.70
2023-01-11T15:01:12.132Z,11.60
2023-01-11T15:03:46.479Z,11.80
2023-01-11T15:06:19.711Z,12.80
2023-01-11T15:08:50.770Z,12.20
2023-01-11T15:11:34.000Z,11.80
2023-01-11T15:14:06.486Z,10.80
2023-01-11T15:16:54.189Z,12.90
2023-01-11T15:19:28.567Z,15.20
2023-01-11T15:21:58.968Z,14.30
2023-01-11T15:24:29.489Z,14.60
2023-01-11T15:26:59.223Z,12.30
2023-01-11T15:29:29.101Z,13.00
2023-01-11T15:32:15.653Z,14.40
2023-01-11T15:34:48.697Z,13.40
2023-01-11T15:37:41.760Z,13.50
2023-01-11T15:40:17.936Z,13.90
2023-01-11T15:43:20.613Z,16.20
2023-01-11T15:46:21.464Z,13.80
2023-01-11T15:49:20.813Z,14.30
2023-01-11T15:52:05.070Z,14.70
2023-01-11T15:58:11.432Z,16.70
2023-01-11T16:01:15.487Z,14.30
2023-01-11T16:04:07.128Z,13.50
2023-01-11T16:06:44.213Z,13.90
2023-01-11T16:09:35.529Z,13.40
2023-01-11T16:12:20.129Z,13.60
2023-01-11T16:17:30.934Z,12.40
2023-01-11T16:20:18.953Z,13.80
2023-01-11T16:22:54.364Z,11.60
2023-01-11T16:25:29.097Z,13.30
2023-01-11T16:28:01.784Z,14.10
2023-01-11T16:30:33.604Z,12.70
2023-01-11T16:33:21.066Z,13.30
2023-01-11T16:36:05.939Z,13.40
2023-01-11T16:38:46.258Z,13.10
2023-01-11T16:41:19.076Z,14.20
2023-01-11T16:43:54.202Z,14.60
2023-01-11T16:47:07.618Z,13.90
2023-01-11T16:49:40.007Z,15.00
2023-01-11T16:52:38.900Z,13.80
2023-01-11T16:55:20.689Z,14.60
2023-01-11T16:57:55.869Z,15.70
2023-01-11T17:00:35.770Z,13.60
2023-01-11T17:03:24.128Z,16.10
2023-01-11T17:06:11.143Z,14.80
2023-01-11T17:08:43.929Z,16.10
2023-01-11T17:11:25.999Z,17.20
2023-01-11T17:14:31.306Z,14.70
2023-01-11T17:17:05.910Z,13.10
2023-01-11T17:19:39.394Z,15.50
2023-01-11T17:22:23.013Z,15.40
2023-01-11T17:24:56.845Z,14.80
2023-01-11T17:27:31.199Z,13.90
2023-01-11T17:30:04.079Z,17.20
2023-01-11T17:32:39.274Z,17.30
2023-01-11T17:35:18.076Z,14.10
2023-01-11T17:37:51.529Z,16.00
2023-01-11T17:40:28.355Z,15.90
2023-01-11T17:43:21.546Z,17.20
2023-01-11T17:45:56.054Z,15.50
2023-01-11T17:48:29.120Z,15.20
2023-01-11T17:51:02.705Z,15.60
2023-01-11T17:53:35.757Z,15.20
2023-01-11T17:56:11.102Z,16.40
2023-01-11T17:58:43.161Z,16.00
2023-01-11T18:01:21.168Z,13.70
2023-01-11T18:03:57.034Z,14.40
2023-01-11T18:06:36.316Z,14.20
2023-01-11T18:09:09.783Z,14.30
2023-01-11T18:11:42.367Z,13.90
2023-01-11T18:14:20.777Z,16.20
2023-01-11T18:17:04.281Z,12.90
2023-01-11T18:19:39.969Z,13.80
2023-01-11T18:25:28.975Z,17.30
2023-01-11T18:28:21.685Z,16.00
2023-01-11T18:30:53.180Z,16.70
2023-01-11T18:33:23.964Z,15.70
2023-01-11T18:35:54.004Z,14.60
2023-01-11T18:38:27.938Z,17.60
2023-01-11T18:40:58.419Z,15.80
2023-01-11T18:43:29.325Z,12.10
2023-01-11T18:45:58.321Z,18.00
2023-01-11T18:48:26.983Z,15.60
2023-01-11T18:50:55.879Z,15.90
2023-01-11T18:53:24.661Z,15.50
2023-01-11T18:55:53.341Z,17.90
2023-01-11T18:58:24.862Z,17.70
2023-01-11T19:00:53.232Z,16.50
2023-01-11T19:03:23.508Z,16.80
2023-01-11T19:05:52.289Z,16.00
2023-01-11T19:08:21.603Z,18.40
2023-01-11T19:10:50.899Z,16.40
2023-01-11T19:13:20.892Z,15.60
2023-01-11T19:15:50.386Z,14.90
2023-01-11T19:18:19.266Z,13.40
2023-01-11T19:20:48.221Z,13.60
2023-01-11T19:23:17.083Z,13.40
2023-01-11T19:25:45.866Z,13.80
2023-01-11T19:28:14.369Z,13.60
2023-01-11T19:30:42.790Z,13.30
2023-01-11T19:33:11.325Z,10.90
2023-01-11T19:35:41.247Z,12.00
2023-01-11T19:38:09.794Z,11.30
2023-01-11T19:40:38.204Z,14.10
2023-01-11T19:43:06.602Z,13.80
2023-01-11T19:45:35.002Z,12.30
2023-01-11T19:48:04.078Z,15.00
2023-01-11T19:50:33.124Z,13.40
2023-01-11T19:53:01.703Z,13.10
2023-01-11T19:55:31.590Z,12.50
2023-01-11T19:58:02.088Z,14.70
2023-01-11T20:00:31.196Z,12.60
2023-01-11T20:03:05.256Z,14.30
2023-01-11T20:05:34.084Z,14.30
2023-01-11T20:08:02.469Z,14.80
2023-01-11T20:10:31.335Z,17.30
2023-01-11T20:12:59.712Z,15.60
2023-01-11T20:15:28.054Z,14.90
2023-01-11T20:17:56.913Z,16.30
2023-01-11T20:20:25.507Z,15.90
2023-01-11T20:22:53.862Z,15.80
2023-01-11T20:25:24.200Z,15.20
2023-01-11T20:27:52.693Z,16.10
2023-01-11T20:30:21.181Z,17.50
2023-01-11T20:32:49.844Z,18.80
2023-01-11T20:35:18.653Z,16.90
2023-01-11T20:37:47.031Z,18.70
2023-01-11T20:40:16.791Z,17.10
2023-01-11T20:42:45.503Z,17.20
2023-01-11T20:45:14.066Z,16.80
2023-01-11T20:47:42.902Z,17.50
2023-01-11T20:50:11.944Z,17.80
2023-01-11T20:52:40.312Z,18.70
2023-01-11T20:55:10.380Z,17.90
2023-01-11T20:57:39.232Z,17.90
2023-01-11T21:02:38.996Z,19.00
2023-01-11T21:05:09.099Z,18.00
2023-01-11T21:07:37.477Z,21.80
2023-01-11T21:10:08.874Z,21.20
2023-01-11T21:12:40.267Z,20.30
2023-01-11T21:15:10.431Z,18.60
2023-01-11T21:17:39.004Z,17.80
2023-01-11T21:20:10.249Z,20.50
2023-01-11T21:22:38.704Z,19.60
2023-01-11T21:25:09.681Z,19.60
2023-01-11T21:27:38.367Z,20.20
2023-01-11T21:30:09.630Z,20.70
2023-01-11T21:32:38.273Z,21.20
2023-01-11T21:35:07.778Z,18.50
2023-01-11T21:37:37.035Z,19.60
2023-01-11T21:40:07.643Z,21.80
2023-01-11T21:42:36.060Z,22.10
2023-01-11T21:45:07.874Z,21.50
2023-01-11T21:47:36.312Z,20.00
2023-01-11T21:50:06.658Z,21.10
2023-01-11T21:52:35.107Z,20.00
2023-01-11T21:55:03.671Z,21.00
2023-01-11T21:57:32.234Z,19.80
2023-01-11T22:00:00.662Z,21.90
2023-01-11T22:02:29.022Z,17.30
2023-01-11T22:04:58.837Z,22.00
2023-01-11T22:07:28.731Z,18.00
2023-01-11T22:10:04.523Z,20.00
2023-01-11T22:12:34.623Z,21.30
2023-01-11T22:15:03.318Z,22.10
2023-01-11T22:17:31.728Z,20.60
2023-01-11T22:20:00.162Z,20.90
2023-01-11T22:22:29.488Z,20.00
2023-01-11T22:24:57.823Z,20.30
2023-01-11T22:27:26.207Z,18.10
2023-01-11T22:29:54.714Z,21.70
2023-01-11T22:32:23.583Z,20.90
2023-01-11T22:34:52.139Z,18.40
2023-01-11T22:37:20.568Z,20.50
2023-01-11T22:39:49.008Z,18.80
2023-01-11T22:42:17.386Z,20.30
2023-01-11T22:44:45.896Z,18.50
2023-01-11T22:47:14.247Z,21.30
2023-01-11T22:49:42.620Z,19.40
2023-01-11T22:52:11.038Z,17.70
2023-01-11T22:54:39.369Z,18.00
2023-01-11T22:57:07.854Z,20.00
2023-01-11T22:59:36.190Z,20.00
2023-01-11T23:02:04.599Z,17.30
2023-01-11T23:04:32.937Z,19.10
2023-01-11T23:07:01.476Z,20.70
2023-01-11T23:09:29.906Z,18.30
2023-01-11T23:12:16.752Z,19.80
2023-01-11T23:14:45.394Z,20.60
2023-01-11T23:17:13.799Z,17.80
2023-01-11T23:19:43.424Z,21.10
2023-01-11T23:22:14.819Z,21.40
2023-01-11T23:24:43.721Z,19.30
2023-01-11T23:27:12.483Z,19.80
2023-01-11T23:29:40.972Z,19.40
2023-01-11T23:32:09.344Z,19.60
2023-01-11T23:34:37.880Z,20.50
2023-01-11T23:37:06.497Z,18.10
2023-01-11T23:39:34.907Z,19.90
2023-01-11T23:42:21.710Z,20.10
2023-01-11T23:44:50.168Z,21.70
2023-01-11T23:47:21.119Z,19.20
2023-01-11T23:49:50.211Z,20.40
2023-01-11T23:52:19.874Z,20.90
2023-01-11T23:54:48.365Z,17.10
2023-01-11T23:57:18.075Z,19.90
2023-01-11T23:59:46.507Z,19.20
